Time;durP1;ratioP1;P1;durP2;ratioP2;P2;SDS_P1;SDS_P2;PMS_P1;PMS_P2;Temp;Humidity;BMP_temperature;BMP_pressure;BME280_temperature;BME280_humidity;BME280_pressure;Samples;Min_cycle;Max_cycle;Signal;HPM_P1;HPM_P2
2022/12/23 00:05:38;;;;;;;12.35;6.72;;;;;;;3.16;100.00;98189.14;4306052;81;21005;-88
2022/12/23 00:15:04;;;;;;;14.93;6.60;;;;;;;3.12;100.00;98199.06;4323243;80;21066;-88
2022/12/23 00:17:45;;;;;;;14.53;7.65;;;;;;;3.07;100.00;98207.42;4334894;80;21043;-90
2022/12/23 00:23:49;;;;;;;14.35;7.58;;;;;;;3.02;100.00;98205.75;4316832;80;21067;-88
2022/12/23 00:29:50;;;;;;;11.25;6.92;;;;;;;2.95;100.00;98208.83;4329811;80;21010;-88
2022/12/23 00:35:52;;;;;;;14.47;7.45;;;;;;;2.78;100.00;98214.52;4331539;80;21742;-89
2022/12/23 00:54:34;;;;;;;21.02;12.15;;;;;;;2.40;100.00;98237.10;4325314;80;21020;-87
2022/12/23 01:06:58;;;;;;;28.57;13.38;;;;;;;2.44;100.00;98244.77;4317468;80;21013;-88
2022/12/23 01:12:59;;;;;;;14.30;8.38;;;;;;;2.40;100.00;98258.16;4322796;80;21042;-88
2022/12/23 01:19:01;;;;;;;12.18;7.00;;;;;;;2.50;100.00;98254.20;4317836;81;21064;-88
2022/12/23 01:25:03;;;;;;;10.28;6.10;;;;;;;2.52;100.00;98259.48;4312761;81;21085;-88
2022/12/23 01:31:07;;;;;;;10.03;6.28;;;;;;;2.49;100.00;98258.81;4306311;81;20993;-88
2022/12/23 01:37:08;;;;;;;9.60;6.75;;;;;;;2.45;100.00;98247.68;4307883;81;21025;-88
2022/12/23 01:43:18;;;;;;;11.05;6.58;;;;;;;2.38;100.00;98244.19;4314851;81;20978;-88
2022/12/23 01:49:20;;;;;;;13.45;7.80;;;;;;;2.48;100.00;98244.30;4319340;81;21050;-88
2022/12/23 01:55:26;;;;;;;10.00;6.65;;;;;;;2.37;100.00;98228.33;4311465;81;21031;-87
2022/12/23 02:21:13;;;;;;;6.92;4.62;;;;;;;2.16;100.00;98233.85;4379891;80;21011;-89
2022/12/23 02:27:29;;;;;;;6.03;3.45;;;;;;;2.27;100.00;98232.86;4342098;81;21093;-88
2022/12/23 02:33:53;;;;;;;6.28;4.25;;;;;;;2.26;100.00;98236.11;4361393;80;21071;-89
2022/12/23 02:40:10;;;;;;;5.72;3.67;;;;;;;2.21;100.00;98238.27;4372659;80;21024;-87
2022/12/23 02:46:23;;;;;;;5.28;3.37;;;;;;;2.22;100.00;98247.93;4361302;80;21075;-88
2022/12/23 02:52:30;;;;;;;6.60;4.15;;;;;;;2.22;100.00;98258.18;4373168;80;21051;-89
2022/12/23 02:58:37;;;;;;;5.47;3.40;;;;;;;2.24;100.00;98259.95;4374347;80;21087;-88
2022/12/23 03:04:40;;;;;;;6.87;3.70;;;;;;;2.27;100.00;98255.81;4365322;80;21043;-88
2022/12/23 03:11:05;;;;;;;7.62;4.83;;;;;;;2.26;100.00;98260.97;4361252;80;21016;-88
2022/12/23 03:17:35;;;;;;;25.60;17.05;;;;;;;2.15;100.00;98261.98;4222489;81;21102;-88
2022/12/23 03:23:44;;;;;;;26.35;17.85;;;;;;;2.12;100.00;98257.81;4316315;81;21094;-88
2022/12/23 03:29:57;;;;;;;35.00;19.45;;;;;;;2.08;100.00;98259.62;4304462;81;21118;-88
2022/12/23 03:36:10;;;;;;;41.25;26.45;;;;;;;2.08;100.00;98257.73;4304311;81;21440;-89
2022/12/23 03:42:20;;;;;;;30.00;18.92;;;;;;;2.08;100.00;98250.98;4308292;81;21039;-87
2022/12/23 03:48:39;;;;;;;21.70;13.58;;;;;;;2.19;100.00;98249.95;4327061;81;21057;-88
2022/12/23 03:54:52;;;;;;;17.95;10.93;;;;;;;2.15;100.00;98240.39;4316376;81;21048;-88
2022/12/23 04:01:33;;;;;;;15.63;8.20;;;;;;;2.00;100.00;98243.77;4298149;80;38486;-87
2022/12/23 04:07:59;;;;;;;24.10;15.63;;;;;;;2.00;100.00;98245.12;4144420;84;21682;-88
2022/12/23 04:14:01;;;;;;;62.87;27.77;;;;;;;2.04;100.00;98243.31;4195163;84;21644;-87
2022/12/23 04:20:03;;;;;;;33.33;21.30;;;;;;;2.09;100.00;98253.89;4196054;84;21122;-87
2022/12/23 04:26:04;;;;;;;40.55;20.08;;;;;;;2.14;100.00;98252.33;4264490;83;21056;-89
2022/12/23 04:32:06;;;;;;;36.77;19.82;;;;;;;2.07;100.00;98256.13;4181543;83;21031;-88
2022/12/23 04:38:07;;;;;;;41.42;23.18;;;;;;;2.01;100.00;98249.94;4249425;83;21706;-87
2022/12/23 04:44:09;;;;;;;39.03;21.33;;;;;;;1.99;100.00;98256.25;4170798;85;21163;-87
2022/12/23 04:50:15;;;;;;;34.25;21.12;;;;;;;1.95;100.00;98252.08;4179458;84;22087;-88
2022/12/23 04:56:16;;;;;;;32.65;19.98;;;;;;;1.88;100.00;98255.89;4197066;84;21045;-87
2022/12/23 05:02:18;;;;;;;38.17;21.40;;;;;;;1.80;100.00;98247.91;4182387;84;21094;-87
2022/12/23 05:08:20;;;;;;;32.75;21.60;;;;;;;1.72;100.00;98233.41;4188128;84;21061;-87
2022/12/23 05:14:21;;;;;;;37.75;22.80;;;;;;;1.69;100.00;98225.18;4190400;83;21073;-88
2022/12/23 05:20:23;;;;;;;39.58;23.98;;;;;;;1.68;100.00;98224.97;4180364;84;21037;-87
2022/12/23 05:26:26;;;;;;;38.92;23.15;;;;;;;1.68;100.00;98217.64;4192035;84;21082;-86
2022/12/23 05:32:27;;;;;;;40.85;24.63;;;;;;;1.63;100.00;98218.43;4256586;82;21110;-89
2022/12/23 05:38:30;;;;;;;34.65;22.82;;;;;;;1.53;100.00;98210.97;4265324;82;21073;-87
2022/12/23 05:44:32;;;;;;;37.15;23.30;;;;;;;1.50;100.00;98217.04;4272931;82;21609;-88
2022/12/23 05:50:36;;;;;;;40.55;24.57;;;;;;;1.41;100.00;98216.35;4245803;82;21399;-87
2022/12/23 05:56:40;;;;;;;43.13;26.80;;;;;;;1.34;100.00;98216.67;4267013;82;21621;-86
2022/12/23 06:02:42;;;;;;;46.08;27.52;;;;;;;1.28;100.00;98209.92;4275656;82;22143;-88
2022/12/23 06:08:43;;;;;;;36.88;23.45;;;;;;;1.26;100.00;98213.50;4250802;83;21030;-85
2022/12/23 06:14:45;;;;;;;31.62;18.52;;;;;;;1.20;100.00;98208.89;4234872;82;22082;-86
2022/12/23 06:20:47;;;;;;;27.02;16.35;;;;;;;1.16;100.00;98211.24;4239453;83;22212;-87
2022/12/23 06:26:49;;;;;;;22.73;14.03;;;;;;;1.13;100.00;98214.02;4233949;83;21023;-86
2022/12/23 06:32:50;;;;;;;24.67;13.08;;;;;;;1.09;100.00;98217.72;4233020;83;21155;-86
2022/12/23 06:38:52;;;;;;;29.90;17.92;;;;;;;1.11;100.00;98215.48;4248939;83;22069;-89
2022/12/23 06:44:54;;;;;;;34.60;20.57;;;;;;;1.12;100.00;98225.14;4237981;83;21078;-88
2022/12/23 06:50:56;;;;;;;38.08;21.40;;;;;;;1.15;100.00;98215.84;4274652;81;21574;-87
2022/12/23 06:56:58;;;;;;;38.55;21.12;;;;;;;1.20;100.00;98215.64;4295103;81;21048;-88
2022/12/23 07:02:59;;;;;;;30.25;17.90;;;;;;;1.23;100.00;98222.26;4293371;82;21534;-86
2022/12/23 07:09:02;;;;;;;34.58;22.27;;;;;;;1.21;100.00;98219.90;4289798;82;21079;-88
2022/12/23 07:15:04;;;;;;;39.85;23.30;;;;;;;1.29;100.00;98219.03;4293311;82;21631;-88
2022/12/23 07:21:06;;;;;;;43.83;26.45;;;;;;;1.34;100.00;98212.08;4282631;82;21646;-87
2022/12/23 07:27:08;;;;;;;39.10;21.62;;;;;;;1.41;100.00;98216.91;4281854;82;21704;-88
2022/12/23 07:33:09;;;;;;;34.65;18.65;;;;;;;1.44;100.00;98214.34;4284684;82;21004;-87
2022/12/23 07:39:11;;;;;;;30.68;17.98;;;;;;;1.48;100.00;98217.16;4281579;82;21079;-87
2022/12/23 07:45:13;;;;;;;36.53;19.55;;;;;;;1.43;100.00;98221.41;4289865;82;21040;-88
2022/12/23 07:51:14;;;;;;;32.93;18.92;;;;;;;1.48;100.00;98222.00;4287471;82;21076;-86
2022/12/23 07:57:18;;;;;;;52.98;28.87;;;;;;;1.53;100.00;98216.95;4282979;82;21023;-88
2022/12/23 08:03:20;;;;;;;62.43;33.83;;;;;;;1.64;100.00;98220.80;4281323;82;21628;-89
2022/12/23 08:09:21;;;;;;;74.90;37.10;;;;;;;1.75;100.00;98219.23;4288695;82;21052;-87
2022/12/23 08:15:23;;;;;;;67.10;35.28;;;;;;;1.87;100.00;98213.84;4283978;82;21130;-87
2022/12/23 08:21:24;;;;;;;73.67;38.67;;;;;;;1.91;100.00;98216.66;4277467;82;21048;-86
2022/12/23 08:27:26;;;;;;;73.70;37.25;;;;;;;2.02;100.00;98213.73;4292079;82;21076;-87
2022/12/23 08:33:28;;;;;;;93.37;41.88;;;;;;;2.06;100.00;98215.42;4280512;81;21127;-88
2022/12/23 08:39:30;;;;;;;73.78;38.50;;;;;;;2.08;100.00;98216.44;4281537;82;21068;-86
2022/12/23 08:45:38;;;;;;;82.70;46.08;;;;;;;2.10;100.00;98222.29;4285281;82;21028;-86
2022/12/23 08:51:41;;;;;;;76.02;43.50;;;;;;;2.09;100.00;98218.00;4282777;82;21166;-87
2022/12/23 08:57:43;;;;;;;68.12;39.95;;;;;;;2.09;100.00;98210.70;4279177;82;21055;-89
2022/12/23 09:03:45;;;;;;;78.47;43.70;;;;;;;2.11;100.00;98204.95;4278418;82;21129;-88
2022/12/23 09:09:47;;;;;;;71.47;41.20;;;;;;;2.10;100.00;98197.99;4281561;82;21520;-88
2022/12/23 09:15:49;;;;;;;79.15;46.08;;;;;;;2.15;100.00;98198.53;4285190;82;21107;-86
2022/12/23 09:21:50;;;;;;;98.00;52.05;;;;;;;2.29;100.00;98182.77;4223051;83;21078;-86
2022/12/23 09:27:52;;;;;;;108.92;66.53;;;;;;;2.41;100.00;98165.77;4228008;83;21416;-87
2022/12/23 09:33:57;;;;;;;107.12;63.95;;;;;;;2.53;100.00;98161.12;4227057;83;20968;-86
2022/12/23 09:39:59;;;;;;;108.65;70.12;;;;;;;2.55;100.00;98160.19;4218627;83;21036;-90
2022/12/23 09:46:13;;;;;;;103.85;63.75;;;;;;;2.61;100.00;98162.89;4239955;83;21563;-87
2022/12/23 09:52:26;;;;;;;103.12;58.60;;;;;;;2.65;100.00;98153.52;4235999;83;21596;-88
2022/12/23 09:58:36;;;;;;;53.15;30.25;;;;;;;2.73;100.00;98152.03;4227969;83;21088;-86
2022/12/23 10:04:51;;;;;;;19.17;11.20;;;;;;;2.92;100.00;98140.58;4291164;82;21059;-88
2022/12/23 10:11:15;;;;;;;14.07;8.60;;;;;;;3.27;100.00;98126.66;4245490;83;21059;-88
2022/12/23 10:17:31;;;;;;;11.45;6.55;;;;;;;3.65;100.00;98115.22;4242617;83;21685;-88
2022/12/23 10:23:39;;;;;;;6.78;4.30;;;;;;;3.83;100.00;98105.03;4185360;84;22157;-88
2022/12/23 10:29:41;;;;;;;7.78;4.30;;;;;;;4.00;100.00;98104.64;4173878;84;21737;-87
2022/12/23 10:36:07;;;;;;;6.90;4.12;;;;;;;4.05;100.00;98094.09;4236038;83;21129;-87
2022/12/23 10:42:21;;;;;;;10.18;4.35;;;;;;;4.19;100.00;98104.68;4253176;83;21117;-87
2022/12/23 10:49:01;;;;;;;8.25;4.35;;;;;;;4.31;100.00;98095.63;4249678;82;21627;-88
2022/12/23 10:55:04;;;;;;;11.53;6.00;;;;;;;4.52;100.00;98098.23;4242499;83;22047;-87
2022/12/23 11:01:07;;;;;;;10.35;5.37;;;;;;;4.61;100.00;98098.79;4235381;83;22283;-88
2022/12/23 11:07:29;;;;;;;12.25;6.05;;;;;;;4.54;100.00;98091.86;4235772;83;21104;-87
2022/12/23 11:13:41;;;;;;;10.40;5.83;;;;;;;4.45;100.00;98094.00;4232143;83;21032;-88
2022/12/23 11:19:43;;;;;;;12.05;6.47;;;;;;;4.39;100.00;98090.57;4208401;83;21142;-87
2022/12/23 11:25:45;;;;;;;12.53;7.20;;;;;;;4.31;100.00;98092.36;4163822;84;21130;-87
2022/12/23 11:31:48;;;;;;;13.75;6.08;;;;;;;4.30;100.00;98083.23;4165927;84;21051;-89
2022/12/23 11:37:49;;;;;;;11.18;6.47;;;;;;;4.33;100.00;98085.22;4193437;84;22123;-86
2022/12/23 11:43:57;;;;;;;11.15;6.28;;;;;;;4.28;100.00;98082.79;4195902;84;21564;-87
2022/12/23 11:50:04;;;;;;;10.32;6.30;;;;;;;4.26;100.00;98076.38;4173216;83;21098;-88
2022/12/23 11:56:13;;;;;;;11.10;5.53;;;;;;;4.45;100.00;98066.11;4174744;84;21052;-88
2022/12/23 12:02:37;;;;;;;12.60;5.97;;;;;;;4.60;100.00;98063.91;4237228;83;21015;-86
2022/12/23 12:08:40;;;;;;;9.73;5.70;;;;;;;4.57;100.00;98068.69;4246575;83;20984;-88
2022/12/23 12:14:56;;;;;;;10.82;5.55;;;;;;;4.51;100.00;98073.59;4226245;83;21719;-86
2022/12/23 12:21:05;;;;;;;10.00;5.67;;;;;;;4.63;100.00;98072.12;4179566;84;21081;-87
2022/12/23 12:27:10;;;;;;;10.60;5.47;;;;;;;4.57;100.00;98070.81;4184933;84;21058;-87
2022/12/23 12:33:20;;;;;;;7.40;4.85;;;;;;;4.51;100.00;98076.31;4170122;84;21043;-87
2022/12/23 12:39:32;;;;;;;11.05;5.75;;;;;;;4.46;100.00;98067.11;4172098;84;21133;-87
2022/12/23 12:45:54;;;;;;;11.88;5.67;;;;;;;4.50;100.00;98066.63;4182818;84;21090;-86
2022/12/23 12:52:22;;;;;;;10.15;5.22;;;;;;;4.51;100.00;98071.48;4179164;84;21066;-87
2022/12/23 12:58:24;;;;;;;14.33;6.22;;;;;;;4.48;100.00;98060.77;4181716;84;21601;-87
2022/12/23 13:04:46;;;;;;;12.63;6.17;;;;;;;4.46;100.00;98071.77;4176894;84;21062;-86
2022/12/23 13:11:11;;;;;;;12.58;6.00;;;;;;;4.46;100.00;98069.81;4168745;84;21105;-87
2022/12/23 13:17:18;;;;;;;11.10;5.03;;;;;;;4.43;100.00;98074.59;4201266;83;21184;-87
2022/12/23 13:23:55;;;;;;;9.95;5.12;;;;;;;4.38;100.00;98081.67;4213130;83;21609;-86
2022/12/23 13:30:12;;;;;;;;;;;;;;;4.41;100.00;98085.59;4239704;83;21617;-87
2022/12/23 13:36:50;;;;;;;11.10;4.83;;;;;;;4.53;100.00;98088.15;4209050;83;20130;-86
2022/12/23 13:42:57;;;;;;;9.43;5.03;;;;;;;4.58;100.00;98091.38;4244620;83;21687;-87
2022/12/23 13:49:13;;;;;;;10.08;5.25;;;;;;;4.61;100.00;98091.22;4248766;83;21072;-87
2022/12/23 13:55:56;;;;;;;15.37;7.47;;;;;;;4.68;100.00;98095.44;4243051;83;20985;-87
2022/12/23 14:01:58;;;;;;;11.57;6.70;;;;;;;4.64;100.00;98099.98;4234843;83;21169;-86
2022/12/23 14:08:05;;;;;;;15.00;7.70;;;;;;;4.51;100.00;98096.64;4231613;83;21145;-88
2022/12/23 14:14:12;;;;;;;12.98;7.00;;;;;;;4.35;100.00;98106.75;4239329;83;21072;-88
2022/12/23 14:20:33;;;;;;;15.58;7.47;;;;;;;4.31;100.00;98113.23;4188211;83;21086;-87
2022/12/23 14:26:57;;;;;;;14.25;6.80;;;;;;;4.34;100.00;98114.67;4136190;82;21101;-87
2022/12/23 14:33:05;;;;;;;16.20;7.40;;;;;;;4.32;100.00;98126.42;4177455;83;21082;-87
2022/12/23 14:39:18;;;;;;;12.85;7.03;;;;;;;4.13;100.00;98134.55;4188706;84;21047;-87
2022/12/23 14:45:35;;;;;;;16.42;9.50;;;;;;;4.11;100.00;98141.43;4175374;84;21715;-87
2022/12/23 14:51:39;;;;;;;19.25;9.18;;;;;;;4.02;100.00;98148.41;4183337;84;21526;-87
2022/12/23 14:57:41;;;;;;;28.32;15.25;;;;;;;4.10;100.00;98150.70;4189529;84;21046;-86
2022/12/23 15:03:50;;;;;;;40.48;19.40;;;;;;;4.03;100.00;98143.20;4184925;84;21102;-88
2022/12/23 15:09:59;;;;;;;38.70;20.62;;;;;;;3.88;100.00;98156.77;4149387;84;22180;-87
2022/12/23 15:16:00;;;;;;;54.05;27.65;;;;;;;3.85;100.00;98152.05;4185976;82;21103;-85
2022/12/23 15:22:07;;;;;;;43.65;21.57;;;;;;;3.74;100.00;98157.78;4238217;83;21657;-87
2022/12/23 15:28:17;;;;;;;;;;;;;;;3.60;100.00;98164.99;4228922;83;21058;-87
2022/12/23 15:34:30;;;;;;;33.55;18.70;;;;;;;3.50;100.00;98158.73;4236920;83;20150;-87
2022/12/23 15:40:36;;;;;;;40.65;22.32;;;;;;;3.39;100.00;98154.97;4267504;82;21077;-87
2022/12/23 15:46:39;;;;;;;39.00;23.02;;;;;;;3.30;100.00;98146.24;4261637;82;21441;-86
2022/12/23 15:52:44;;;;;;;60.83;29.65;;;;;;;3.20;100.00;98143.48;4253531;82;21075;-85
2022/12/23 15:58:46;;;;;;;73.83;36.93;;;;;;;3.03;100.00;98140.30;4187853;83;21125;-86
2022/12/23 16:04:54;;;;;;;49.42;24.47;;;;;;;2.93;100.00;98146.20;4273451;82;21079;-86
2022/12/23 16:11:07;;;;;;;50.00;26.48;;;;;;;2.78;100.00;98146.95;4284280;82;21028;-86
2022/12/23 16:17:13;;;;;;;49.83;27.65;;;;;;;2.76;100.00;98150.55;4279368;82;21036;-85
2022/12/23 16:23:16;;;;;;;52.67;28.30;;;;;;;2.75;100.00;98148.44;4271821;82;20992;-87
2022/12/23 16:29:18;;;;;;;48.45;27.60;;;;;;;2.68;100.00;98151.48;4279300;82;21588;-87
2022/12/23 16:35:34;;;;;;;58.95;28.92;;;;;;;2.56;100.00;98152.88;4273207;82;21099;-86
2022/12/23 16:41:36;;;;;;;70.55;36.53;;;;;;;2.41;100.00;98159.77;4277492;82;21063;-87
2022/12/23 16:47:37;;;;;;;86.10;44.80;;;;;;;2.31;100.00;98167.02;4240487;83;21040;-87
2022/12/23 16:53:39;;;;;;;98.15;52.25;;;;;;;2.37;100.00;98154.05;4255446;82;21018;-86
2022/12/23 16:59:41;;;;;;;111.60;56.33;;;;;;;2.38;100.00;98146.95;4251479;82;21559;-86
2022/12/23 17:05:44;;;;;;;90.92;45.98;;;;;;;2.41;100.00;98143.56;4187609;84;21593;-87
2022/12/23 17:11:52;;;;;;;74.05;41.35;;;;;;;2.37;100.00;98143.25;4259736;82;21087;-86
2022/12/23 17:17:53;;;;;;;90.42;46.28;;;;;;;2.34;100.00;98134.48;4242720;82;21098;-87
2022/12/23 17:24:09;;;;;;;84.10;42.60;;;;;;;2.34;100.00;98129.08;4188202;83;21060;-86
2022/12/23 17:30:18;;;;;;;54.53;28.23;;;;;;;2.31;100.00;98119.76;4187369;84;21097;-87
2022/12/23 17:36:20;;;;;;;49.53;27.82;;;;;;;2.14;100.00;98131.38;4190708;83;21096;-88
2022/12/23 17:42:22;;;;;;;75.75;37.13;;;;;;;2.07;100.00;98123.08;4170988;84;21047;-87
2022/12/23 17:48:24;;;;;;;60.70;32.33;;;;;;;2.04;100.00;98130.48;4190444;83;21093;-88
2022/12/23 17:54:26;;;;;;;76.77;37.53;;;;;;;1.95;100.00;98144.12;4195025;84;22051;-87
2022/12/23 18:00:28;;;;;;;94.90;41.95;;;;;;;1.81;100.00;98146.92;4195270;83;21043;-87
2022/12/23 18:06:29;;;;;;;73.10;36.88;;;;;;;1.84;100.00;98153.00;4187238;84;21159;-87
2022/12/23 18:12:40;;;;;;;90.03;46.35;;;;;;;1.83;100.00;98158.18;4186981;83;21953;-88
2022/12/23 18:18:42;;;;;;;94.32;47.10;;;;;;;1.78;100.00;98161.09;4160447;84;21080;-88
2022/12/23 18:24:46;;;;;;;88.52;46.28;;;;;;;1.75;100.00;98165.27;4190396;84;21789;-88
2022/12/23 18:30:48;;;;;;;93.87;48.92;;;;;;;1.76;100.00;98167.38;4183319;84;21087;-87
2022/12/23 18:36:50;;;;;;;90.55;50.38;;;;;;;1.76;100.00;98164.13;4181472;83;21156;-88
2022/12/23 18:42:52;;;;;;;98.27;54.30;;;;;;;1.77;100.00;98166.28;4184103;84;21094;-87
2022/12/23 18:48:54;;;;;;;108.67;60.08;;;;;;;1.79;100.00;98162.66;4236159;83;21138;-86
2022/12/23 18:54:55;;;;;;;86.85;49.80;;;;;;;1.79;100.00;98167.50;4244842;82;21037;-87
2022/12/23 19:00:57;;;;;;;90.03;49.08;;;;;;;1.77;100.00;98175.72;4132683;82;10000501;-87
2022/12/23 19:06:58;;;;;;;94.40;50.48;;;;;;;1.73;100.00;98180.20;4191060;84;21620;-86
2022/12/23 19:13:00;;;;;;;97.35;53.38;;;;;;;1.74;100.00;98187.96;4188867;84;21622;-87
2022/12/23 19:19:02;;;;;;;93.60;51.08;;;;;;;1.72;100.00;98188.08;4194281;84;21128;-87
2022/12/23 19:25:05;;;;;;;104.23;58.33;;;;;;;1.67;100.00;98195.04;4186157;84;21082;-87
2022/12/23 19:31:12;;;;;;;106.90;56.35;;;;;;;1.69;100.00;98182.81;4257353;82;21593;-86
2022/12/23 19:37:14;;;;;;;104.75;55.88;;;;;;;1.72;100.00;98182.69;4245212;82;21094;-86
2022/12/23 19:43:15;;;;;;;86.55;49.98;;;;;;;1.70;100.00;98185.72;4251218;82;22282;-87
2022/12/23 19:49:17;;;;;;;95.65;53.42;;;;;;;1.63;100.00;98182.01;4244228;82;21038;-84
2022/12/23 19:55:18;;;;;;;91.87;50.03;;;;;;;1.63;100.00;98171.98;4252008;82;21019;-86
2022/12/23 20:01:23;;;;;;;97.22;52.50;;;;;;;1.66;100.00;98181.34;4258562;82;21722;-85
2022/12/23 20:07:25;;;;;;;77.58;41.60;;;;;;;1.62;100.00;98183.91;4248535;82;21071;-85
2022/12/23 20:13:27;;;;;;;88.20;48.35;;;;;;;1.53;100.00;98191.33;4261459;82;20996;-86
2022/12/23 20:19:28;;;;;;;87.97;47.25;;;;;;;1.53;100.00;98192.67;4261430;82;21019;-87
2022/12/23 20:25:30;;;;;;;79.82;44.23;;;;;;;1.49;100.00;98176.92;4275835;82;22278;-86
2022/12/23 20:31:36;;;;;;;87.78;47.25;;;;;;;1.47;100.00;98171.86;4276201;82;21567;-87
2022/12/23 20:37:38;;;;;;;100.58;54.50;;;;;;;1.50;100.00;98175.23;4276317;82;21079;-87
2022/12/23 20:43:40;;;;;;;93.25;52.03;;;;;;;1.54;100.00;98159.17;4254827;82;21068;-86
2022/12/23 20:49:42;;;;;;;74.45;41.13;;;;;;;1.52;100.00;98136.58;4283994;82;21654;-87
2022/12/23 20:55:43;;;;;;;76.77;42.78;;;;;;;1.39;100.00;98141.73;4276359;82;21106;-87
2022/12/23 21:01:45;;;;;;;105.12;55.52;;;;;;;1.37;100.00;98123.77;4275753;82;21076;-88
2022/12/23 21:07:47;;;;;;;106.75;57.00;;;;;;;1.39;100.00;98122.85;4276184;82;21067;-86
2022/12/23 21:13:49;;;;;;;85.70;45.88;;;;;;;1.42;100.00;98121.41;4285818;82;21119;-85
2022/12/23 21:19:52;;;;;;;62.10;34.78;;;;;;;1.52;100.00;98127.69;4292262;82;21056;-87
2022/12/23 21:26:19;;;;;;;60.70;32.35;;;;;;;1.63;100.00;98119.97;4295349;82;21956;-85
2022/12/23 21:32:21;;;;;;;50.30;26.45;;;;;;;1.70;100.00;98103.43;4296326;82;21529;-87
2022/12/23 21:38:23;;;;;;;47.33;24.65;;;;;;;1.81;100.00;98094.31;4291981;82;21074;-86
2022/12/23 21:44:25;;;;;;;33.30;19.23;;;;;;;1.81;100.00;98092.41;4306523;82;21959;-88
2022/12/23 21:50:26;;;;;;;33.65;18.45;;;;;;;1.88;100.00;98078.34;4291880;82;21064;-86
2022/12/23 21:56:30;;;;;;;28.87;16.87;;;;;;;1.99;100.00;98079.45;4298625;82;21091;-86
2022/12/23 22:02:32;;;;;;;35.38;17.92;;;;;;;2.04;100.00;98073.80;4295227;82;21724;-88
2022/12/23 22:08:34;;;;;;;51.60;28.12;;;;;;;2.05;100.00;98076.73;4296119;82;21042;-87
2022/12/23 22:14:36;;;;;;;65.12;33.73;;;;;;;1.87;100.00;98070.01;4298654;81;21086;-86
2022/12/23 22:20:38;;;;;;;42.80;23.18;;;;;;;1.85;100.00;98078.45;4284674;82;21048;-86
2022/12/23 22:26:40;;;;;;;59.73;28.10;;;;;;;1.84;100.00;98071.48;4286201;82;21624;-86
2022/12/23 22:32:42;;;;;;;54.73;29.27;;;;;;;1.89;100.00;98066.41;4263634;83;21034;-87
2022/12/23 22:38:52;;;;;;;48.10;24.75;;;;;;;1.86;100.00;98057.09;4198101;83;21050;-87
2022/12/23 22:44:53;;;;;;;41.70;21.85;;;;;;;1.86;100.00;98059.00;4198429;84;21155;-85
2022/12/23 22:51:08;;;;;;;40.12;19.62;;;;;;;1.86;100.00;98063.05;4233783;83;21039;-87
2022/12/23 22:57:10;;;;;;;43.02;20.90;;;;;;;1.87;100.00;98058.66;4205925;84;21122;-88
2022/12/23 23:03:11;;;;;;;40.30;19.05;;;;;;;1.88;100.00;98052.70;4224227;83;21754;-88
2022/12/23 23:09:17;;;;;;;44.48;21.50;;;;;;;1.90;100.00;98055.28;4271553;83;21067;-86
2022/12/23 23:15:18;;;;;;;38.35;19.70;;;;;;;1.96;100.00;98051.80;4187429;84;21601;-88
2022/12/23 23:21:21;;;;;;;36.30;20.10;;;;;;;2.01;100.00;98042.88;4130336;84;21071;-86
2022/12/23 23:27:22;;;;;;;37.65;19.05;;;;;;;2.00;100.00;98037.27;4125684;85;21147;-89
2022/12/23 23:33:24;;;;;;;53.58;28.42;;;;;;;1.96;100.00;98041.00;4174859;84;21006;-86
2022/12/23 23:39:26;;;;;;;53.63;28.52;;;;;;;2.00;100.00;98037.27;4175428;84;22020;-86
2022/12/23 23:45:27;;;;;;;46.18;25.40;;;;;;;2.07;100.00;98040.16;4159760;84;21016;-87
2022/12/23 23:51:29;;;;;;;45.95;27.90;;;;;;;2.05;100.00;98039.70;4157580;84;21096;-87
2022/12/23 23:57:31;;;;;;;50.88;29.30;;;;;;;2.03;100.00;98051.98;4170148;84;21098;-87
